Cangas, Spain
Current Conditions -  °F | °C
As of 1:00 PM on Friday 24 Oct 2014 (Local Time) from LEVX Reporting Station
Clear Clear  
Wind Chill: 73°   Ceiling: Unl
Heat Index: 73°   Visibility: 6mi
Dew Point: 61°   Wind: 2mph
Humidity: 65%   Direction: NA
Pressure: 30.15"   Gusts: NA
Location:  42.26°N, 8.78°W
Report Text: LEVX 241100Z VRB02KT CAVOK 23/16 Q1021 NOSIG
Loading
Personal Weather Stations






























Interactive Weather Map
Tropical Storm Tracking
New forecast layout! Learn more

10-Day Weather Forecast

Advertisements
Track Severe Weather on mobile